createdAt,value
2022-12-01T00:01:35.256Z,19.86
2022-12-01T00:04:03.221Z,20.61
2022-12-01T00:06:31.672Z,20.47
2022-12-01T00:09:20.232Z,19.39
2022-12-01T00:11:48.936Z,18.93
2022-12-01T00:14:17.006Z,18.17
2022-12-01T00:16:45.144Z,16.26
2022-12-01T00:19:13.328Z,15.14
2022-12-01T00:21:41.206Z,14.85
2022-12-01T00:24:10.662Z,14.91
2022-12-01T00:26:39.054Z,14.94
2022-12-01T00:29:07.113Z,15.10
2022-12-01T00:31:35.140Z,15.01
2022-12-01T00:34:06.924Z,16.43
2022-12-01T00:36:39.750Z,16.78
2022-12-01T00:39:08.513Z,15.72
2022-12-01T00:41:36.436Z,16.25
2022-12-01T00:44:04.689Z,15.90
2022-12-01T00:46:32.691Z,16.19
2022-12-01T00:49:00.694Z,15.60
2022-12-01T00:51:28.565Z,15.91
2022-12-01T00:53:56.534Z,16.10
2022-12-01T00:56:24.546Z,16.19
2022-12-01T00:58:52.443Z,16.55
2022-12-01T01:01:20.477Z,16.17
2022-12-01T01:03:48.416Z,16.51
2022-12-01T01:06:16.611Z,16.60
2022-12-01T01:08:46.427Z,16.09
2022-12-01T01:11:14.479Z,16.00
2022-12-01T01:13:42.335Z,15.93
2022-12-01T01:16:15.394Z,16.15
2022-12-01T01:18:43.456Z,16.24
2022-12-01T01:21:14.097Z,15.51
2022-12-01T01:23:42.269Z,15.76
2022-12-01T01:26:21.691Z,15.64
2022-12-01T01:28:50.586Z,15.48
2022-12-01T01:31:21.490Z,16.38
2022-12-01T01:33:51.091Z,16.74
2022-12-01T01:36:19.815Z,16.61
2022-12-01T01:38:48.273Z,17.21
2022-12-01T01:41:16.846Z,17.45
2022-12-01T01:43:53.992Z,17.70
2022-12-01T01:46:28.132Z,18.14
2022-12-01T01:49:07.911Z,17.50
2022-12-01T01:51:45.537Z,17.68
2022-12-01T01:54:27.294Z,17.90
2022-12-01T01:56:57.834Z,17.62
2022-12-01T01:59:31.307Z,17.52
2022-12-01T02:02:08.576Z,17.66
2022-12-01T02:04:40.373Z,17.45
2022-12-01T02:07:09.388Z,17.36
2022-12-01T02:09:37.337Z,18.31
2022-12-01T02:12:24.439Z,18.40
2022-12-01T02:14:55.230Z,18.52
2022-12-01T02:17:30.703Z,18.02
2022-12-01T02:20:10.404Z,18.18
2022-12-01T02:22:55.348Z,18.31
2022-12-01T02:25:47.393Z,18.64
2022-12-01T02:28:48.396Z,20.37
2022-12-01T02:31:50.732Z,20.33
2022-12-01T02:34:46.913Z,20.64
2022-12-01T02:37:24.296Z,20.39
2022-12-01T02:40:02.052Z,20.90
2022-12-01T02:43:02.256Z,20.70
2022-12-01T02:45:42.320Z,20.33
2022-12-01T02:48:16.889Z,20.19
2022-12-01T02:50:46.786Z,23.17
2022-12-01T02:53:18.514Z,22.40
2022-12-01T02:55:52.739Z,22.46
2022-12-01T02:58:22.116Z,22.75
2022-12-01T03:01:24.627Z,21.60
2022-12-01T03:04:01.785Z,22.21
2022-12-01T03:07:05.266Z,24.44
2022-12-01T03:09:56.938Z,24.94
2022-12-01T03:12:49.244Z,25.80
2022-12-01T03:15:31.484Z,25.62
2022-12-01T03:18:08.429Z,24.10
2022-12-01T03:20:55.101Z,22.73
2022-12-01T03:23:28.109Z,25.71
2022-12-01T03:25:59.829Z,25.81
2022-12-01T03:28:35.865Z,23.99
2022-12-01T03:31:09.321Z,22.93
2022-12-01T03:33:44.642Z,23.92
2022-12-01T03:36:29.387Z,25.82
2022-12-01T03:39:04.818Z,23.37
2022-12-01T03:41:42.700Z,25.65
2022-12-01T03:44:21.626Z,26.68
2022-12-01T03:47:20.831Z,26.91
2022-12-01T03:49:51.919Z,29.63
2022-12-01T03:52:31.986Z,29.33
2022-12-01T03:55:14.451Z,29.09
2022-12-01T03:57:44.975Z,30.30
2022-12-01T04:00:14.804Z,31.75
2022-12-01T04:02:44.826Z,31.37
2022-12-01T04:05:13.522Z,33.44
2022-12-01T04:07:41.476Z,34.10
2022-12-01T04:10:09.625Z,34.92
2022-12-01T04:12:37.646Z,34.26
2022-12-01T04:15:12.526Z,34.38
2022-12-01T04:17:45.105Z,35.63
2022-12-01T04:20:14.985Z,34.49
2022-12-01T04:22:42.863Z,34.51
2022-12-01T04:25:11.715Z,34.84
2022-12-01T04:27:39.887Z,35.26
2022-12-01T04:30:08.677Z,35.74
2022-12-01T04:32:41.245Z,36.41
2022-12-01T04:35:11.735Z,36.42
2022-12-01T04:37:40.062Z,37.63
2022-12-01T04:40:08.982Z,36.82
2022-12-01T04:42:37.356Z,37.70
2022-12-01T04:45:06.085Z,38.73
2022-12-01T04:47:34.057Z,37.22
2022-12-01T04:50:01.964Z,39.87
2022-12-01T04:52:35.012Z,38.41
2022-12-01T04:55:04.052Z,39.76
2022-12-01T04:57:31.948Z,41.14
2022-12-01T04:59:59.879Z,42.11
2022-12-01T05:02:27.883Z,42.44
2022-12-01T05:04:55.841Z,41.59
2022-12-01T05:07:23.796Z,43.47
2022-12-01T05:09:52.477Z,45.96
2022-12-01T05:12:20.476Z,48.64
2022-12-01T05:14:48.606Z,47.86
2022-12-01T05:17:16.542Z,48.41
2022-12-01T05:20:03.347Z,47.46
2022-12-01T05:22:57.261Z,46.55
2022-12-01T05:25:19.556Z,48.08
2022-12-01T05:27:47.482Z,49.18
2022-12-01T05:30:15.432Z,49.18
2022-12-01T05:32:44.444Z,47.63
2022-12-01T05:35:12.818Z,49.72
2022-12-01T05:37:40.789Z,49.05
2022-12-01T05:40:09.790Z,49.49
2022-12-01T05:42:37.914Z,48.89
2022-12-01T05:45:06.444Z,50.63
2022-12-01T05:47:34.346Z,51.03
2022-12-01T05:50:05.812Z,49.62
2022-12-01T05:52:35.304Z,50.89
2022-12-01T05:55:05.117Z,51.03
2022-12-01T05:57:33.474Z,52.80
2022-12-01T06:00:01.544Z,50.55
2022-12-01T06:02:42.946Z,49.83
2022-12-01T06:05:11.029Z,50.92
2022-12-01T06:07:40.405Z,50.80
2022-12-01T06:10:09.604Z,53.27
2022-12-01T06:12:38.110Z,52.03
2022-12-01T06:15:07.526Z,50.71
2022-12-01T06:17:39.895Z,49.04
2022-12-01T06:20:08.897Z,51.87
2022-12-01T06:22:37.009Z,53.44
2022-12-01T06:25:05.397Z,51.11
2022-12-01T06:27:33.300Z,51.75
2022-12-01T06:30:01.275Z,53.02
2022-12-01T06:32:29.193Z,52.85
2022-12-01T06:34:57.112Z,53.49
2022-12-01T06:37:25.093Z,53.73
2022-12-01T06:39:53.132Z,53.21
2022-12-01T06:42:21.068Z,53.01
2022-12-01T06:44:49.185Z,53.40
2022-12-01T06:47:17.255Z,53.75
2022-12-01T06:49:45.525Z,52.97
2022-12-01T06:52:13.413Z,54.26
2022-12-01T06:54:41.295Z,53.97
2022-12-01T06:57:09.535Z,54.53
2022-12-01T06:59:37.660Z,55.37
2022-12-01T07:02:05.660Z,55.47
2022-12-01T07:04:33.605Z,55.71
2022-12-01T07:07:01.523Z,52.98
2022-12-01T07:09:29.402Z,54.15
2022-12-01T07:11:57.277Z,54.68
2022-12-01T07:14:26.951Z,55.11
2022-12-01T07:16:55.075Z,57.02
2022-12-01T07:19:23.088Z,54.95
2022-12-01T07:21:51.150Z,52.45
2022-12-01T07:24:19.005Z,52.67
2022-12-01T07:26:48.023Z,52.50
2022-12-01T07:29:15.913Z,55.40
2022-12-01T07:31:44.186Z,55.33
2022-12-01T07:34:15.423Z,54.97
2022-12-01T07:36:43.315Z,53.75
2022-12-01T07:39:11.296Z,53.94
2022-12-01T07:41:39.280Z,54.75
2022-12-01T07:44:09.082Z,53.21
2022-12-01T07:46:37.583Z,54.18
2022-12-01T07:49:07.433Z,54.29
2022-12-01T07:51:35.345Z,53.52
2022-12-01T07:54:05.307Z,54.83
2022-12-01T07:56:33.974Z,54.94
2022-12-01T07:59:01.906Z,54.73
2022-12-01T08:01:29.943Z,54.24
2022-12-01T08:03:59.161Z,54.86
2022-12-01T08:06:27.550Z,56.98
2022-12-01T08:08:56.101Z,57.21
2022-12-01T08:11:26.762Z,56.48
2022-12-01T08:13:54.741Z,56.71
2022-12-01T08:16:24.600Z,56.12
2022-12-01T08:18:52.741Z,57.61
2022-12-01T08:21:23.013Z,70.56
2022-12-01T08:23:54.670Z,90.83
2022-12-01T08:26:24.231Z,89.08
2022-12-01T08:28:52.158Z,83.05
2022-12-01T08:31:32.045Z,82.37
2022-12-01T08:34:00.034Z,91.31
2022-12-01T08:36:27.993Z,102.62
2022-12-01T08:38:56.477Z,90.81
2022-12-01T08:41:25.278Z,78.42
2022-12-01T08:43:58.421Z,69.42
2022-12-01T08:46:36.301Z,67.53
2022-12-01T08:49:05.753Z,62.93
2022-12-01T08:51:33.955Z,62.09
2022-12-01T08:54:02.427Z,60.84
2022-12-01T08:56:36.828Z,59.65
2022-12-01T08:59:05.202Z,57.59
2022-12-01T09:01:33.337Z,56.01
2022-12-01T09:04:05.875Z,55.54
2022-12-01T09:06:45.842Z,55.14
2022-12-01T09:09:17.600Z,58.05
2022-12-01T09:11:47.043Z,63.35
2022-12-01T09:14:16.326Z,62.70
2022-12-01T09:16:47.792Z,64.43
2022-12-01T09:19:23.668Z,64.91
2022-12-01T09:21:53.342Z,65.66
2022-12-01T09:24:21.408Z,60.00
2022-12-01T09:26:49.541Z,57.16
2022-12-01T09:29:17.551Z,56.13
2022-12-01T09:31:45.454Z,55.54
2022-12-01T09:34:17.535Z,55.71
2022-12-01T09:36:46.810Z,55.91
2022-12-01T09:39:17.625Z,54.51
2022-12-01T09:41:45.532Z,53.83
2022-12-01T09:44:30.452Z,52.61
2022-12-01T09:47:20.236Z,54.79
2022-12-01T09:50:07.446Z,53.80
2022-12-01T09:52:48.178Z,52.63
2022-12-01T09:55:18.974Z,51.57
2022-12-01T09:57:53.750Z,51.72
2022-12-01T10:00:24.358Z,52.80
2022-12-01T10:03:13.578Z,53.44
2022-12-01T10:06:18.415Z,53.18
2022-12-01T10:08:44.175Z,52.81
2022-12-01T10:11:24.381Z,51.57
2022-12-01T10:13:52.461Z,51.47
2022-12-01T10:16:29.947Z,53.30
2022-12-01T10:19:27.006Z,52.47
2022-12-01T10:22:09.298Z,52.32
2022-12-01T10:24:50.624Z,51.42
2022-12-01T10:27:58.207Z,52.87
2022-12-01T10:30:26.304Z,52.99
2022-12-01T10:32:58.201Z,52.07
2022-12-01T10:35:29.351Z,50.27
2022-12-01T10:38:01.459Z,51.69
2022-12-01T10:40:34.563Z,52.17
2022-12-01T10:43:03.511Z,53.34
2022-12-01T10:45:37.302Z,53.11
2022-12-01T10:48:20.768Z,53.97
2022-12-01T10:50:57.700Z,53.54
2022-12-01T10:53:33.611Z,53.71
2022-12-01T10:56:19.576Z,54.51
2022-12-01T10:58:49.780Z,53.48
2022-12-01T11:01:25.185Z,51.14
2022-12-01T11:04:01.609Z,52.47
2022-12-01T11:06:31.166Z,53.72
2022-12-01T11:09:03.892Z,54.24
2022-12-01T11:11:40.094Z,55.05
2022-12-01T11:14:47.620Z,55.75
2022-12-01T11:17:27.294Z,56.28
2022-12-01T11:19:55.588Z,55.02
2022-12-01T11:22:30.532Z,56.49
2022-12-01T11:25:00.821Z,55.49
2022-12-01T11:27:32.955Z,54.96
2022-12-01T11:30:24.590Z,54.86
2022-12-01T11:33:01.814Z,56.18
2022-12-01T11:35:38.878Z,57.29
2022-12-01T11:38:29.446Z,56.30
2022-12-01T11:40:57.721Z,56.06
2022-12-01T11:43:32.643Z,55.28
2022-12-01T11:46:05.473Z,55.96
2022-12-01T11:48:36.405Z,56.14
2022-12-01T11:51:27.662Z,55.61
2022-12-01T11:54:22.566Z,55.71
2022-12-01T11:57:17.345Z,55.24
2022-12-01T11:59:40.721Z,54.72
2022-12-01T12:02:37.679Z,54.68
2022-12-01T12:05:26.631Z,54.66
2022-12-01T12:08:16.479Z,54.23
2022-12-01T12:10:53.827Z,56.02
2022-12-01T12:13:48.742Z,54.91
2022-12-01T12:16:19.986Z,54.68
2022-12-01T12:19:06.543Z,53.28
2022-12-01T12:21:42.636Z,56.23
2022-12-01T12:24:47.784Z,56.28
2022-12-01T12:27:24.570Z,55.72
2022-12-01T12:30:15.451Z,54.70
2022-12-01T12:33:22.244Z,54.99
2022-12-01T12:35:53.479Z,55.95
2022-12-01T12:38:56.425Z,53.76
2022-12-01T12:41:34.459Z,53.84
2022-12-01T12:44:36.615Z,54.37
2022-12-01T12:47:19.874Z,53.43
2022-12-01T12:50:09.633Z,53.93
2022-12-01T12:52:42.383Z,56.20
2022-12-01T12:55:19.235Z,54.81
2022-12-01T12:57:53.262Z,54.74
2022-12-01T13:00:25.294Z,56.23
2022-12-01T13:02:57.457Z,55.75
2022-12-01T13:05:44.886Z,57.35
2022-12-01T13:08:23.533Z,57.58
2022-12-01T13:11:04.960Z,57.57
2022-12-01T13:13:57.381Z,56.19
2022-12-01T13:16:36.546Z,56.52
2022-12-01T13:19:25.229Z,55.31
2022-12-01T13:21:54.104Z,55.91
2022-12-01T13:24:24.898Z,56.46
2022-12-01T13:26:59.979Z,56.77
2022-12-01T13:29:38.396Z,55.81
2022-12-01T13:32:29.769Z,55.27
2022-12-01T13:34:59.431Z,55.32
2022-12-01T13:37:30.671Z,56.30
2022-12-01T13:40:31.102Z,56.33
2022-12-01T13:43:10.319Z,56.91
2022-12-01T13:45:40.890Z,57.72
2022-12-01T13:48:49.652Z,57.36
2022-12-01T13:51:17.725Z,56.56
2022-12-01T13:54:06.385Z,57.07
2022-12-01T13:56:39.404Z,57.33
2022-12-01T13:59:42.113Z,56.54
2022-12-01T14:02:18.442Z,58.07
2022-12-01T14:04:47.153Z,58.19
2022-12-01T14:07:21.091Z,58.09
2022-12-01T14:09:56.528Z,56.92
2022-12-01T14:12:30.237Z,58.56
2022-12-01T14:15:04.761Z,59.06
2022-12-01T14:17:35.241Z,58.51
2022-12-01T14:20:19.268Z,58.57
2022-12-01T14:23:09.556Z,59.04
2022-12-01T14:25:39.691Z,58.27
2022-12-01T14:28:18.962Z,58.34
2022-12-01T14:30:50.356Z,59.22
2022-12-01T14:33:39.780Z,59.02
2022-12-01T14:36:17.351Z,59.17
2022-12-01T14:38:47.271Z,58.81
2022-12-01T14:41:30.811Z,58.23
2022-12-01T14:44:12.796Z,56.54
2022-12-01T14:46:50.411Z,58.65
2022-12-01T14:49:24.278Z,57.79
2022-12-01T14:52:02.941Z,58.44
2022-12-01T14:54:43.331Z,58.36
2022-12-01T14:57:16.868Z,57.64
2022-12-01T14:59:45.323Z,58.59
2022-12-01T15:02:14.044Z,58.81
2022-12-01T15:05:07.949Z,57.21
2022-12-01T15:07:40.771Z,56.78
2022-12-01T15:10:19.942Z,57.62
2022-12-01T15:12:49.194Z,58.66
2022-12-01T15:15:23.673Z,57.11
2022-12-01T15:17:55.502Z,60.34
2022-12-01T15:20:37.717Z,58.78
2022-12-01T15:23:14.726Z,58.74
2022-12-01T15:25:45.462Z,58.42
2022-12-01T15:28:16.485Z,57.86
2022-12-01T15:30:48.532Z,59.36
2022-12-01T15:33:27.006Z,59.51
2022-12-01T15:35:57.135Z,58.21
2022-12-01T15:38:37.086Z,57.81
2022-12-01T15:43:58.967Z,60.17
2022-12-01T15:46:32.541Z,60.00
2022-12-01T15:49:09.036Z,59.68
2022-12-01T15:51:37.390Z,59.17
2022-12-01T15:54:05.522Z,58.88
2022-12-01T15:56:39.444Z,57.53
2022-12-01T15:59:13.344Z,58.07
2022-12-01T16:01:44.011Z,59.11
2022-12-01T16:04:20.274Z,57.90
2022-12-01T16:06:57.200Z,57.94
2022-12-01T16:09:39.719Z,58.30
2022-12-01T16:12:16.818Z,58.77
2022-12-01T16:14:59.811Z,59.46
2022-12-01T16:17:40.946Z,59.60
2022-12-01T16:20:31.855Z,58.46
2022-12-01T16:23:10.289Z,60.66
2022-12-01T16:25:44.278Z,60.00
2022-12-01T16:28:24.428Z,58.73
2022-12-01T16:30:52.999Z,59.43
2022-12-01T16:33:24.072Z,62.44
2022-12-01T16:35:52.718Z,61.07
2022-12-01T16:38:25.160Z,58.07
2022-12-01T16:40:55.871Z,59.57
2022-12-01T16:43:26.506Z,59.28
2022-12-01T16:46:03.578Z,65.77
2022-12-01T16:48:31.661Z,61.49
2022-12-01T16:51:03.594Z,59.51
2022-12-01T16:53:31.706Z,60.01
2022-12-01T16:56:01.882Z,59.53
2022-12-01T16:58:30.246Z,58.86
2022-12-01T17:00:58.785Z,57.97
2022-12-01T17:03:28.494Z,59.00
2022-12-01T17:05:59.829Z,62.23
2022-12-01T17:08:28.493Z,61.16
2022-12-01T17:10:56.936Z,59.53
2022-12-01T17:13:24.845Z,56.88
2022-12-01T17:15:54.973Z,59.06
2022-12-01T17:18:24.185Z,59.08
2022-12-01T17:20:59.568Z,60.09
2022-12-01T17:23:28.274Z,58.37
2022-12-01T17:25:56.138Z,59.73
2022-12-01T17:28:24.021Z,59.12
2022-12-01T17:30:51.976Z,60.27
2022-12-01T17:33:19.976Z,61.31
2022-12-01T17:35:49.877Z,59.45
2022-12-01T17:38:17.817Z,59.66
2022-12-01T17:40:45.717Z,58.86
2022-12-01T17:43:13.698Z,58.50
2022-12-01T17:45:42.901Z,60.21
2022-12-01T17:48:11.024Z,60.88
2022-12-01T17:50:38.933Z,60.07
2022-12-01T17:53:06.808Z,56.65
2022-12-01T17:55:34.681Z,58.21
2022-12-01T17:58:03.804Z,58.14
2022-12-01T18:00:32.358Z,56.41
2022-12-01T18:03:00.361Z,57.33
2022-12-01T18:05:29.479Z,56.94
2022-12-01T18:07:57.445Z,58.72
2022-12-01T18:10:25.339Z,55.00
2022-12-01T18:12:53.211Z,55.13
2022-12-01T18:15:21.131Z,56.90
2022-12-01T18:17:49.152Z,56.63
2022-12-01T18:20:17.086Z,55.80
2022-12-01T18:22:45.401Z,54.74
2022-12-01T18:25:13.425Z,55.17
2022-12-01T18:27:41.341Z,55.72
2022-12-01T18:30:09.860Z,55.71
2022-12-01T18:32:37.988Z,54.84
2022-12-01T18:35:06.462Z,55.37
2022-12-01T18:37:36.542Z,54.77
2022-12-01T18:40:04.956Z,53.89
2022-12-01T18:42:33.023Z,54.05
2022-12-01T18:45:00.901Z,54.11
2022-12-01T18:47:29.394Z,53.67
2022-12-01T18:49:57.292Z,53.43
2022-12-01T18:52:25.294Z,53.89
2022-12-01T18:54:54.366Z,52.08
2022-12-01T18:57:22.294Z,54.58
2022-12-01T18:59:50.847Z,54.15
2022-12-01T19:02:20.336Z,55.28
2022-12-01T19:04:50.170Z,54.76
2022-12-01T19:07:18.846Z,53.87
2022-12-01T19:09:46.837Z,53.71
2022-12-01T19:12:14.916Z,53.48
2022-12-01T19:14:42.874Z,52.45
2022-12-01T19:17:10.781Z,52.56
2022-12-01T19:19:39.350Z,52.19
2022-12-01T19:22:07.357Z,51.60
2022-12-01T19:24:35.720Z,52.23
2022-12-01T19:27:04.422Z,52.30
2022-12-01T19:29:32.510Z,53.01
2022-12-01T19:32:01.693Z,52.96
2022-12-01T19:34:29.697Z,53.25
2022-12-01T19:36:57.875Z,51.93
2022-12-01T19:39:25.790Z,53.42
2022-12-01T19:41:53.741Z,53.80
2022-12-01T19:44:22.447Z,51.66
2022-12-01T19:46:50.450Z,53.26
2022-12-01T19:49:18.301Z,51.68
2022-12-01T19:51:46.498Z,52.64
2022-12-01T19:54:17.930Z,50.90
2022-12-01T19:56:47.132Z,50.59
2022-12-01T19:59:15.305Z,52.94
2022-12-01T20:01:43.359Z,52.10
2022-12-01T20:04:11.832Z,52.28
2022-12-01T20:06:39.804Z,53.09
2022-12-01T20:09:08.402Z,52.43
2022-12-01T20:11:36.913Z,54.78
2022-12-01T20:14:07.618Z,54.51
2022-12-01T20:16:35.875Z,54.02
2022-12-01T20:19:05.607Z,53.38
2022-12-01T20:21:35.618Z,52.54
2022-12-01T20:24:08.305Z,52.82
2022-12-01T20:26:43.077Z,51.42
2022-12-01T20:29:25.469Z,51.08
2022-12-01T20:31:55.546Z,50.62
2022-12-01T20:34:27.353Z,51.10
2022-12-01T20:36:56.323Z,49.65
2022-12-01T20:39:25.360Z,50.39
2022-12-01T20:41:53.293Z,51.43
2022-12-01T20:44:21.682Z,49.86
2022-12-01T20:46:49.588Z,49.97
2022-12-01T20:49:18.848Z,50.83
2022-12-01T20:51:47.122Z,51.17
2022-12-01T20:54:32.735Z,49.39
2022-12-01T20:57:00.722Z,49.09
2022-12-01T20:59:29.015Z,49.35
2022-12-01T21:01:57.564Z,50.07
2022-12-01T21:04:26.875Z,48.23
2022-12-01T21:06:56.695Z,48.73
2022-12-01T21:09:26.012Z,49.23
2022-12-01T21:12:27.033Z,50.52
2022-12-01T21:15:13.600Z,48.50
2022-12-01T21:17:48.467Z,49.73
2022-12-01T21:20:42.922Z,48.05
2022-12-01T21:23:14.547Z,47.87
2022-12-01T21:25:43.635Z,48.22
2022-12-01T21:28:23.450Z,48.34
2022-12-01T21:31:00.411Z,48.33
2022-12-01T21:33:33.128Z,47.30
2022-12-01T21:36:18.188Z,47.52
2022-12-01T21:38:49.596Z,48.36
2022-12-01T21:41:28.906Z,48.78
2022-12-01T21:44:04.566Z,47.72
2022-12-01T21:46:32.679Z,47.53
2022-12-01T21:49:01.418Z,47.18
2022-12-01T21:51:30.822Z,48.26
2022-12-01T21:54:01.875Z,50.27
2022-12-01T21:56:31.670Z,48.33
2022-12-01T21:59:11.520Z,48.34
2022-12-01T22:01:40.481Z,47.82
2022-12-01T22:04:16.691Z,47.12
2022-12-01T22:06:49.235Z,48.24
2022-12-01T22:09:26.098Z,47.48
2022-12-01T22:12:11.210Z,46.42
2022-12-01T22:14:39.398Z,48.04
2022-12-01T22:17:07.179Z,47.67
2022-12-01T22:19:40.023Z,46.51
2022-12-01T22:22:10.899Z,47.24
2022-12-01T22:24:40.712Z,47.26
2022-12-01T22:27:25.195Z,47.61
2022-12-01T22:29:58.438Z,47.02
2022-12-01T22:32:44.637Z,46.06
2022-12-01T22:35:19.264Z,47.48
2022-12-01T22:37:50.786Z,46.35
2022-12-01T22:40:40.131Z,46.02
2022-12-01T22:43:19.864Z,46.21
2022-12-01T22:46:00.157Z,46.36
2022-12-01T22:48:28.036Z,46.90
2022-12-01T22:51:21.399Z,48.49
2022-12-01T22:54:06.464Z,48.70
2022-12-01T22:56:36.702Z,48.27
2022-12-01T22:59:21.341Z,48.86
2022-12-01T23:01:58.931Z,48.06
2022-12-01T23:04:27.760Z,48.59
2022-12-01T23:07:00.318Z,49.03
2022-12-01T23:09:35.731Z,48.80
2022-12-01T23:12:12.762Z,48.76
2022-12-01T23:14:45.354Z,47.51
2022-12-01T23:17:18.508Z,47.18
2022-12-01T23:19:47.494Z,48.39
2022-12-01T23:22:16.724Z,48.80
2022-12-01T23:24:45.081Z,49.22
2022-12-01T23:27:16.489Z,48.77
2022-12-01T23:29:44.368Z,49.26
2022-12-01T23:32:12.647Z,48.65
2022-12-01T23:34:40.696Z,49.36
2022-12-01T23:37:34.926Z,47.84
2022-12-01T23:40:19.927Z,48.82
2022-12-01T23:42:48.726Z,49.27
2022-12-01T23:45:22.946Z,49.28
2022-12-01T23:47:53.325Z,49.46
2022-12-01T23:50:30.362Z,49.85
2022-12-01T23:52:58.213Z,48.68
2022-12-01T23:55:29.190Z,48.54
2022-12-01T23:57:58.890Z,49.31
